Terminal Aerodrome Forecast
Issued by NWS

Current Version | Previous Version | Text Only | Print | Product List | Glossary On
Versions: 1 2 3 4 5 6 7 8 9 10 11 12 13 14 15
000
FTUS45 KABQ 291100
TAFFMN
TAF
KFMN 291121Z 2912/3012 36005KT P6SM SKC
     FM292100 27010G20KT P6SM SKC
     FM300000 36005KT P6SM SKC=

USA.gov is the U.S. government's official web portal to all federal, state and local government web resources and services.